Time;durP1;ratioP1;P1;durP2;ratioP2;P2;SDS_P1;SDS_P2;PMS_P1;PMS_P2;Temp;Humidity;BMP_temperature;BMP_pressure;BME280_temperature;BME280_humidity;BME280_pressure;Samples;Min_cycle;Max_cycle;Signal;HPM_P1;HPM_P2
2022/10/31 00:02:04;;;;;;;;;;;14.10;61.70;;;;;;4985694;28;88330;-39
2022/10/31 00:04:30;;;;;;;;;;;14.00;61.60;;;;;;4985903;28;86384;-39
2022/10/31 00:06:55;;;;;;;;;;;14.10;61.70;;;;;;4985716;28;86968;-39
2022/10/31 00:09:21;;;;;;;;;;;14.10;61.70;;;;;;4985336;28;88155;-39
2022/10/31 00:11:46;;;;;;;;;;;14.00;61.60;;;;;;4984455;28;88208;-39
2022/10/31 00:14:12;;;;;;;;;;;14.00;61.60;;;;;;4988334;28;88678;-39
2022/10/31 00:16:37;;;;;;;;;;;14.00;61.60;;;;;;4985747;28;87300;-39
2022/10/31 00:19:04;;;;;;;;;;;14.00;61.60;;;;;;4985654;28;86977;-39
2022/10/31 00:21:30;;;;;;;;;;;14.00;61.60;;;;;;4985027;28;88128;-39
2022/10/31 00:23:57;;;;;;;;;;;14.00;61.60;;;;;;4985466;28;87124;-39
2022/10/31 00:26:22;;;;;;;;;;;14.00;61.60;;;;;;4985416;28;87550;-39
2022/10/31 00:28:48;;;;;;;;;;;14.00;61.60;;;;;;4985509;28;86548;-39
2022/10/31 00:31:13;;;;;;;;;;;13.90;61.60;;;;;;4985314;28;87160;-39
2022/10/31 00:33:39;;;;;;;;;;;13.90;61.60;;;;;;4985394;28;87533;-39
2022/10/31 00:36:06;;;;;;;;;;;14.00;61.60;;;;;;4987147;28;87966;-39
2022/10/31 00:38:31;;;;;;;;;;;13.90;61.60;;;;;;4984808;28;90024;-39
2022/10/31 00:40:57;;;;;;;;;;;13.90;61.60;;;;;;4984846;28;88208;-39
2022/10/31 00:43:22;;;;;;;;;;;13.90;61.60;;;;;;4984965;28;87145;-39
2022/10/31 00:45:48;;;;;;;;;;;13.90;61.70;;;;;;4984960;28;87517;-39
2022/10/31 00:48:13;;;;;;;;;;;13.90;61.60;;;;;;4984915;28;88123;-39
2022/10/31 00:50:39;;;;;;;;;;;13.90;61.60;;;;;;4984810;28;87082;-38
2022/10/31 00:53:05;;;;;;;;;;;13.90;61.60;;;;;;4985543;28;87538;-39
2022/10/31 00:55:30;;;;;;;;;;;13.80;61.60;;;;;;4984740;28;88090;-39
2022/10/31 00:57:56;;;;;;;;;;;13.80;61.60;;;;;;4987828;28;87126;-39
2022/10/31 01:00:22;;;;;;;;;;;13.80;61.50;;;;;;4984015;28;88141;-39
2022/10/31 01:02:47;;;;;;;;;;;13.80;61.60;;;;;;4984761;28;87071;-39
2022/10/31 01:05:13;;;;;;;;;;;13.80;61.60;;;;;;4984714;28;87318;-39
2022/10/31 01:07:39;;;;;;;;;;;13.80;61.60;;;;;;4984374;28;87628;-39
2022/10/31 01:10:06;;;;;;;;;;;13.80;61.60;;;;;;4984130;28;87086;-39
2022/10/31 01:12:44;;;;;;;;;;;13.80;61.60;;;;;;4983989;28;89067;-39
2022/10/31 01:15:11;;;;;;;;;;;13.80;61.60;;;;;;4984290;28;88193;-39
2022/10/31 01:17:36;;;;;;;;;;;13.80;61.60;;;;;;4984620;28;86388;-39
2022/10/31 01:20:03;;;;;;;;;;;13.70;61.60;;;;;;4987232;28;87028;-39
2022/10/31 01:22:28;;;;;;;;;;;13.70;61.60;;;;;;4984195;28;87137;-39
2022/10/31 01:24:54;;;;;;;;;;;13.80;61.60;;;;;;4983810;28;87954;-39
2022/10/31 01:27:19;;;;;;;;;;;13.70;61.60;;;;;;4983783;28;88182;-39
2022/10/31 01:29:45;;;;;;;;;;;13.70;61.60;;;;;;4984386;28;87081;-39
2022/10/31 01:32:10;;;;;;;;;;;13.70;61.60;;;;;;4984233;28;87491;-39
2022/10/31 01:34:36;;;;;;;;;;;13.70;61.60;;;;;;4983960;28;88142;-39
2022/10/31 01:37:01;;;;;;;;;;;13.70;61.60;;;;;;4984183;28;87281;-39
2022/10/31 01:39:27;;;;;;;;;;;13.70;61.50;;;;;;4986943;28;87490;-39
2022/10/31 01:41:53;;;;;;;;;;;13.70;61.50;;;;;;4984464;28;86507;-39
2022/10/31 01:44:18;;;;;;;;;;;13.70;61.60;;;;;;4984255;28;86980;-39
2022/10/31 01:46:53;;;;;;;;;;;13.60;61.50;;;;;;4983755;28;88091;-39
2022/10/31 01:49:23;;;;;;;;;;;13.60;61.50;;;;;;4983231;28;88054;-39
2022/10/31 01:51:54;;;;;;;;;;;13.60;61.50;;;;;;4984053;28;87884;-42
2022/10/31 01:54:22;;;;;;;;;;;13.60;61.50;;;;;;4983491;28;88499;-39
2022/10/31 01:56:50;;;;;;;;;;;13.60;61.50;;;;;;4983898;28;87078;-39
2022/10/31 01:59:17;;;;;;;;;;;13.60;61.50;;;;;;4984125;28;87147;-39
2022/10/31 02:01:43;;;;;;;;;;;13.60;61.50;;;;;;4986393;28;88051;-39
2022/10/31 02:04:08;;;;;;;;;;;13.60;61.60;;;;;;4984009;28;87479;-39
2022/10/31 02:06:49;;;;;;;;;;;13.60;61.60;;;;;;4983892;28;87462;-39
2022/10/31 02:09:15;;;;;;;;;;;13.50;61.50;;;;;;4983962;28;87022;-38
2022/10/31 02:11:41;;;;;;;;;;;13.50;61.50;;;;;;4983220;28;87375;-39
2022/10/31 02:14:06;;;;;;;;;;;13.50;61.50;;;;;;4982567;28;89255;-39
2022/10/31 02:16:32;;;;;;;;;;;13.50;61.60;;;;;;4983766;28;87045;-39
2022/10/31 02:18:57;;;;;;;;;;;13.50;61.60;;;;;;4983682;28;87401;-39
2022/10/31 02:21:28;;;;;;;;;;;13.50;61.60;;;;;;4983288;28;87944;-39
2022/10/31 02:23:57;;;;;;;;;;;13.50;61.60;;;;;;4986590;28;87062;-39
2022/10/31 02:26:37;;;;;;;;;;;13.50;61.60;;;;;;4983280;28;88147;-39
2022/10/31 02:29:21;;;;;;;;;;;13.50;61.60;;;;;;4983524;28;86958;-39
2022/10/31 02:31:50;;;;;;;;;;;13.50;61.60;;;;;;4984196;28;86690;-39
2022/10/31 02:34:20;;;;;;;;;;;13.50;61.60;;;;;;4983170;28;88184;-39
2022/10/31 02:36:55;;;;;;;;;;;13.40;61.60;;;;;;4983408;28;87101;-39
2022/10/31 02:39:21;;;;;;;;;;;13.40;61.60;;;;;;4982729;28;88021;-39
2022/10/31 02:41:46;;;;;;;;;;;13.40;61.60;;;;;;4982967;28;88048;-39
2022/10/31 02:44:26;;;;;;;;;;;13.40;61.60;;;;;;4983316;28;88509;-38
2022/10/31 02:47:04;;;;;;;;;;;13.40;61.60;;;;;;4985822;28;87054;-39
2022/10/31 02:49:30;;;;;;;;;;;13.40;61.60;;;;;;4983133;28;87093;-38
2022/10/31 02:51:55;;;;;;;;;;;13.40;61.60;;;;;;4983080;28;87262;-39
2022/10/31 02:54:22;;;;;;;;;;;13.40;61.60;;;;;;4982881;28;87775;-38
2022/10/31 02:56:48;;;;;;;;;;;13.40;61.60;;;;;;4983730;28;86311;-39
2022/10/31 02:59:14;;;;;;;;;;;13.30;61.60;;;;;;4983320;28;86997;-37
2022/10/31 03:01:42;;;;;;;;;;;13.30;61.60;;;;;;4982829;28;87972;-39
2022/10/31 03:04:14;;;;;;;;;;;13.30;62.20;;;;;;4982567;28;88044;-39
2022/10/31 03:06:54;;;;;;;;;;;13.30;61.60;;;;;;4982834;28;88124;-39
2022/10/31 03:09:24;;;;;;;;;;;13.30;61.60;;;;;;4985773;28;88163;-38
2022/10/31 03:11:57;;;;;;;;;;;13.30;61.70;;;;;;4982658;28;87127;-39
2022/10/31 03:14:26;;;;;;;;;;;13.30;61.70;;;;;;4982546;28;88143;-39
2022/10/31 03:16:53;;;;;;;;;;;13.30;61.80;;;;;;4982566;28;87108;-38
2022/10/31 03:19:22;;;;;;;;;;;13.30;61.70;;;;;;4982922;28;87279;-39
2022/10/31 03:21:57;;;;;;;;;;;13.30;61.70;;;;;;4982629;28;87692;-39
2022/10/31 03:24:26;;;;;;;;;;;13.30;61.70;;;;;;4982739;28;87274;-39
2022/10/31 03:26:52;;;;;;;;;;;13.20;61.70;;;;;;4982670;28;87383;-39
2022/10/31 03:29:20;;;;;;;;;;;13.20;61.70;;;;;;4981310;28;88981;-38
2022/10/31 03:31:54;;;;;;;;;;;13.20;61.70;;;;;;4985350;28;87014;-39
2022/10/31 03:34:20;;;;;;;;;;;13.20;61.80;;;;;;4982283;28;88744;-39
2022/10/31 03:36:47;;;;;;;;;;;13.20;61.80;;;;;;4982558;28;87005;-38
2022/10/31 03:39:14;;;;;;;;;;;13.20;61.80;;;;;;4982549;28;87417;-38
2022/10/31 03:41:42;;;;;;;;;;;13.20;61.80;;;;;;4982248;28;87933;-38
2022/10/31 03:44:10;;;;;;;;;;;13.20;61.80;;;;;;4982142;28;87144;-39
2022/10/31 03:46:36;;;;;;;;;;;13.20;61.80;;;;;;4982847;28;87543;-39
2022/10/31 03:49:02;;;;;;;;;;;13.20;61.80;;;;;;4982336;28;87996;-38
2022/10/31 03:51:48;;;;;;;;;;;13.10;61.80;;;;;;4985420;28;87078;-38
2022/10/31 03:54:49;;;;;;;;;;;13.10;61.80;;;;;;4981167;28;90000;-39
2022/10/31 03:57:18;;;;;;;;;;;13.10;61.80;;;;;;4979861;28;87005;-39
2022/10/31 03:59:44;;;;;;;;;;;13.10;61.80;;;;;;4981916;28;87483;-39
2022/10/31 04:02:22;;;;;;;;;;;13.10;61.80;;;;;;4982043;28;88124;-39
2022/10/31 04:04:48;;;;;;;;;;;13.10;61.80;;;;;;4982207;28;87010;-38
2022/10/31 04:07:14;;;;;;;;;;;13.10;61.80;;;;;;4982137;28;87611;-38
2022/10/31 04:09:42;;;;;;;;;;;13.10;61.90;;;;;;4981942;28;87692;-38
2022/10/31 04:12:08;;;;;;;;;;;13.10;62.50;;;;;;4982370;28;86388;-39
2022/10/31 04:14:35;;;;;;;;;;;13.10;62.00;;;;;;4984787;28;86854;-39
2022/10/31 04:17:02;;;;;;;;;;;13.10;61.90;;;;;;4982096;28;87168;-39
2022/10/31 04:19:27;;;;;;;;;;;13.10;61.90;;;;;;4981663;28;87847;-39
2022/10/31 04:21:52;;;;;;;;;;;13.00;61.90;;;;;;4981735;28;88268;-39
2022/10/31 04:24:18;;;;;;;;;;;13.00;61.90;;;;;;4982204;28;87024;-38
2022/10/31 04:26:43;;;;;;;;;;;13.00;62.00;;;;;;4982131;28;87352;-38
2022/10/31 04:29:09;;;;;;;;;;;13.00;61.90;;;;;;4981751;28;88200;-38
2022/10/31 04:31:34;;;;;;;;;;;13.00;62.00;;;;;;4982077;28;87114;-38
2022/10/31 04:34:00;;;;;;;;;;;13.00;62.10;;;;;;4982022;28;87366;-38
2022/10/31 04:36:25;;;;;;;;;;;12.90;62.20;;;;;;4984849;28;87174;-38
2022/10/31 04:38:51;;;;;;;;;;;12.90;62.20;;;;;;4982073;28;87044;-38
2022/10/31 04:41:16;;;;;;;;;;;12.90;62.20;;;;;;4981605;28;88036;-38
2022/10/31 04:43:42;;;;;;;;;;;12.90;62.20;;;;;;4981253;28;87989;-38
2022/10/31 04:46:07;;;;;;;;;;;12.90;62.20;;;;;;4984766;28;87513;-38
2022/10/31 04:48:33;;;;;;;;;;;12.90;62.20;;;;;;4984811;28;87853;-39
2022/10/31 04:51:00;;;;;;;;;;;12.90;62.20;;;;;;4985139;28;86831;-38
2022/10/31 04:53:25;;;;;;;;;;;12.80;62.20;;;;;;4985061;28;87377;-38
2022/10/31 04:55:51;;;;;;;;;;;12.80;62.30;;;;;;4984742;28;87215;-39
2022/10/31 04:58:16;;;;;;;;;;;12.80;62.40;;;;;;4988002;28;87787;-39
2022/10/31 05:00:42;;;;;;;;;;;12.80;62.40;;;;;;4985134;28;87456;-38
2022/10/31 05:03:07;;;;;;;;;;;12.80;62.30;;;;;;4984905;28;87106;-39
2022/10/31 05:05:33;;;;;;;;;;;12.80;62.30;;;;;;4984723;28;87772;-38
2022/10/31 05:07:58;;;;;;;;;;;12.80;62.30;;;;;;4983865;28;88956;-38
2022/10/31 05:10:25;;;;;;;;;;;12.80;62.30;;;;;;4984927;28;87138;-38
2022/10/31 05:12:52;;;;;;;;;;;12.80;62.40;;;;;;4983951;28;87433;-39
2022/10/31 05:15:18;;;;;;;;;;;12.80;62.40;;;;;;4984351;28;88022;-38
2022/10/31 05:17:44;;;;;;;;;;;12.80;62.40;;;;;;4984740;28;87032;-38
2022/10/31 05:20:10;;;;;;;;;;;12.80;62.30;;;;;;4987106;28;87498;-38
2022/10/31 05:22:35;;;;;;;;;;;12.70;62.30;;;;;;4984547;28;87074;-38
2022/10/31 05:25:01;;;;;;;;;;;12.70;62.40;;;;;;4985021;28;87369;-39
2022/10/31 05:27:26;;;;;;;;;;;12.70;62.40;;;;;;4984178;28;88244;-38
2022/10/31 05:29:52;;;;;;;;;;;12.70;62.40;;;;;;4984635;28;88146;-38
2022/10/31 05:32:17;;;;;;;;;;;12.70;62.40;;;;;;4983906;28;88340;-38
2022/10/31 05:34:43;;;;;;;;;;;12.70;62.30;;;;;;4984004;28;88033;-39
2022/10/31 05:37:08;;;;;;;;;;;12.70;62.40;;;;;;4984279;28;87109;-38
2022/10/31 05:39:34;;;;;;;;;;;12.70;62.50;;;;;;4986935;28;87035;-38
2022/10/31 05:41:59;;;;;;;;;;;12.70;62.50;;;;;;4984538;28;87128;-38
2022/10/31 05:44:25;;;;;;;;;;;12.70;62.40;;;;;;4983963;28;86961;-39
2022/10/31 05:46:50;;;;;;;;;;;12.70;63.00;;;;;;4983758;28;88258;-39
2022/10/31 05:49:17;;;;;;;;;;;12.70;62.40;;;;;;4984740;28;86317;-38
2022/10/31 05:51:42;;;;;;;;;;;12.60;62.50;;;;;;4984089;28;86861;-38
2022/10/31 05:54:08;;;;;;;;;;;12.70;63.00;;;;;;4983827;28;88106;-38
2022/10/31 05:56:33;;;;;;;;;;;12.70;62.50;;;;;;4983184;28;88026;-39
2022/10/31 05:58:59;;;;;;;;;;;12.70;62.50;;;;;;4984252;28;89824;-38
2022/10/31 06:01:24;;;;;;;;;;;12.70;62.40;;;;;;4986565;28;88599;-39
2022/10/31 06:03:50;;;;;;;;;;;12.70;62.50;;;;;;4983921;28;87632;-38
2022/10/31 06:06:15;;;;;;;;;;;12.60;62.40;;;;;;4983268;28;88190;-38
2022/10/31 06:08:41;;;;;;;;;;;12.70;62.40;;;;;;4983760;28;87186;-38
2022/10/31 06:11:06;;;;;;;;;;;12.60;62.40;;;;;;4983847;28;87467;-38
2022/10/31 06:13:32;;;;;;;;;;;12.60;62.40;;;;;;4983748;28;86317;-39
2022/10/31 06:15:57;;;;;;;;;;;12.60;62.30;;;;;;4983827;28;87105;-38
2022/10/31 06:18:23;;;;;;;;;;;12.60;62.30;;;;;;4983622;28;87385;-38
2022/10/31 06:20:48;;;;;;;;;;;12.70;62.40;;;;;;4982633;28;89046;-38
2022/10/31 06:23:14;;;;;;;;;;;12.70;62.40;;;;;;4986582;28;87111;-39
2022/10/31 06:25:39;;;;;;;;;;;12.60;62.30;;;;;;4983302;28;88198;-39
2022/10/31 06:28:05;;;;;;;;;;;12.70;62.30;;;;;;4983886;28;87081;-38
2022/10/31 06:30:30;;;;;;;;;;;12.70;62.20;;;;;;4983643;28;86995;-38
2022/10/31 06:33:01;;;;;;;;;;;12.60;62.30;;;;;;4983364;28;87698;-39
2022/10/31 06:35:26;;;;;;;;;;;12.60;62.30;;;;;;4983308;28;86996;-38
2022/10/31 06:37:53;;;;;;;;;;;12.70;62.30;;;;;;4983873;28;87441;-39
2022/10/31 06:40:18;;;;;;;;;;;12.70;62.30;;;;;;4982887;28;87963;-38
2022/10/31 06:42:44;;;;;;;;;;;12.60;62.30;;;;;;4983002;28;87038;-38
2022/10/31 06:45:09;;;;;;;;;;;12.60;62.40;;;;;;4985249;28;88016;-38
2022/10/31 06:47:35;;;;;;;;;;;12.60;62.40;;;;;;4983266;28;86949;-39
2022/10/31 06:50:00;;;;;;;;;;;12.60;62.30;;;;;;4983181;28;87007;-38
2022/10/31 06:52:26;;;;;;;;;;;12.60;62.30;;;;;;4982848;28;87925;-38
2022/10/31 06:54:51;;;;;;;;;;;12.60;62.30;;;;;;4983362;28;87795;-38
2022/10/31 06:57:17;;;;;;;;;;;12.60;62.30;;;;;;4983144;28;87855;-38
2022/10/31 06:59:42;;;;;;;;;;;12.70;62.30;;;;;;4982643;28;88145;-38
2022/10/31 07:02:11;;;;;;;;;;;12.60;62.40;;;;;;4983518;28;86289;-39
2022/10/31 07:04:37;;;;;;;;;;;12.60;62.40;;;;;;4983089;28;87038;-38
2022/10/31 07:07:03;;;;;;;;;;;12.60;62.50;;;;;;4982995;28;91351;-38
2022/10/31 07:09:28;;;;;;;;;;;12.60;62.40;;;;;;4982429;28;87729;-38
2022/10/31 07:11:54;;;;;;;;;;;12.60;62.50;;;;;;4982227;28;87278;-39
2022/10/31 07:14:19;;;;;;;;;;;12.60;62.60;;;;;;4982938;28;87155;-38
2022/10/31 07:16:49;;;;;;;;;;;12.60;62.60;;;;;;4982673;28;87022;-38
2022/10/31 07:19:15;;;;;;;;;;;12.60;62.60;;;;;;4982401;28;88407;-38
2022/10/31 07:21:40;;;;;;;;;;;12.60;62.70;;;;;;4982747;28;87102;-39
2022/10/31 07:24:06;;;;;;;;;;;12.60;62.70;;;;;;4982879;28;87047;-38
2022/10/31 07:26:31;;;;;;;;;;;12.60;62.60;;;;;;4982910;28;86945;-38
2022/10/31 07:28:58;;;;;;;;;;;12.60;62.70;;;;;;4985750;28;87042;-38
2022/10/31 07:31:24;;;;;;;;;;;12.60;62.60;;;;;;4982313;28;87994;-39
2022/10/31 07:33:49;;;;;;;;;;;12.60;62.80;;;;;;4981843;28;88116;-38
2022/10/31 07:36:15;;;;;;;;;;;12.60;62.80;;;;;;4982793;28;87575;-38
2022/10/31 07:38:40;;;;;;;;;;;12.60;62.80;;;;;;4982184;28;88182;-38
2022/10/31 07:41:06;;;;;;;;;;;12.60;62.80;;;;;;4982806;28;87099;-39
2022/10/31 07:43:31;;;;;;;;;;;12.60;62.70;;;;;;4982665;28;87489;-39
2022/10/31 07:45:57;;;;;;;;;;;12.60;62.70;;;;;;4982041;28;88334;-39
2022/10/31 07:48:22;;;;;;;;;;;12.60;62.80;;;;;;4985529;28;86781;-39
2022/10/31 07:50:48;;;;;;;;;;;12.60;62.70;;;;;;4982564;28;87657;-38
2022/10/31 07:53:14;;;;;;;;;;;12.60;62.70;;;;;;4982494;28;87495;-38
2022/10/31 07:55:40;;;;;;;;;;;12.60;62.80;;;;;;4982440;28;87572;-38
2022/10/31 07:58:07;;;;;;;;;;;12.60;62.80;;;;;;4981462;28;88744;-39
2022/10/31 08:00:33;;;;;;;;;;;12.60;62.90;;;;;;4982428;28;86985;-38
2022/10/31 08:02:58;;;;;;;;;;;12.60;62.90;;;;;;4982406;28;87516;-38
2022/10/31 08:05:24;;;;;;;;;;;12.60;62.90;;;;;;4981736;28;88080;-38
2022/10/31 08:07:50;;;;;;;;;;;12.60;62.90;;;;;;4982448;28;87165;-38
2022/10/31 08:10:15;;;;;;;;;;;12.60;62.90;;;;;;4984862;28;87131;-39
2022/10/31 08:12:41;;;;;;;;;;;12.60;62.90;;;;;;4981816;28;87156;-38
2022/10/31 08:15:06;;;;;;;;;;;12.60;62.80;;;;;;4982743;28;87404;-38
2022/10/31 08:17:35;;;;;;;;;;;12.60;62.90;;;;;;4981932;28;88143;-39
2022/10/31 08:20:00;;;;;;;;;;;12.60;62.90;;;;;;4984560;28;87096;-38
2022/10/31 08:22:26;;;;;;;;;;;12.60;62.90;;;;;;4985058;28;88093;-39
2022/10/31 08:24:51;;;;;;;;;;;12.60;62.80;;;;;;4985185;28;88125;-38
2022/10/31 08:27:17;;;;;;;;;;;12.60;63.40;;;;;;4985274;28;87802;-39
2022/10/31 08:29:42;;;;;;;;;;;12.60;62.80;;;;;;4985533;28;87413;-39
2022/10/31 08:32:08;;;;;;;;;;;12.70;62.90;;;;;;4988022;28;88185;-38
2022/10/31 08:34:33;;;;;;;;;;;12.70;62.90;;;;;;4985205;28;87384;-39
2022/10/31 08:36:59;;;;;;;;;;;12.70;62.90;;;;;;4984958;28;88599;-39
2022/10/31 08:39:24;;;;;;;;;;;12.70;62.90;;;;;;4985869;28;86387;-39
2022/10/31 08:41:50;;;;;;;;;;;12.70;63.00;;;;;;4985269;28;87034;-39
2022/10/31 08:44:15;;;;;;;;;;;12.70;62.90;;;;;;4984682;28;87309;-39
2022/10/31 08:46:41;;;;;;;;;;;12.70;62.90;;;;;;4984478;28;88024;-39
2022/10/31 08:49:06;;;;;;;;;;;12.70;62.90;;;;;;4984987;28;88405;-39
2022/10/31 08:51:32;;;;;;;;;;;12.70;62.90;;;;;;4984885;28;88134;-39
2022/10/31 08:53:57;;;;;;;;;;;12.70;62.90;;;;;;4987888;28;87140;-39
2022/10/31 08:56:23;;;;;;;;;;;12.70;62.90;;;;;;4984617;28;88060;-39
2022/10/31 08:58:48;;;;;;;;;;;12.70;62.90;;;;;;4984838;28;87103;-39
2022/10/31 09:01:14;;;;;;;;;;;12.70;62.80;;;;;;4985062;28;87311;-39
2022/10/31 09:03:39;;;;;;;;;;;12.70;62.80;;;;;;4984917;28;87342;-39
2022/10/31 09:06:08;;;;;;;;;;;12.70;62.80;;;;;;4984537;28;87053;-39
2022/10/31 09:08:34;;;;;;;;;;;12.70;62.80;;;;;;4984759;28;87342;-38
2022/10/31 09:10:59;;;;;;;;;;;12.70;62.70;;;;;;4983787;28;89080;-39
2022/10/31 09:13:25;;;;;;;;;;;12.70;62.50;;;;;;4984489;28;87044;-38
2022/10/31 09:15:51;;;;;;;;;;;12.80;62.50;;;;;;4987184;28;87516;-38
2022/10/31 09:18:18;;;;;;;;;;;12.80;62.60;;;;;;4984593;28;87076;-38
2022/10/31 09:20:44;;;;;;;;;;;12.80;62.50;;;;;;4984405;28;87184;-39
2022/10/31 09:23:11;;;;;;;;;;;12.80;62.60;;;;;;4984157;28;88029;-38
2022/10/31 09:25:37;;;;;;;;;;;12.80;62.60;;;;;;4984762;28;88312;-38
2022/10/31 09:28:03;;;;;;;;;;;12.80;62.60;;;;;;4985072;28;87691;-39
2022/10/31 09:30:29;;;;;;;;;;;12.80;62.70;;;;;;4983297;28;87324;-39
2022/10/31 09:32:56;;;;;;;;;;;12.80;62.70;;;;;;4984525;28;87054;-39
2022/10/31 09:35:22;;;;;;;;;;;12.90;62.60;;;;;;4983333;28;88105;-38
2022/10/31 09:37:53;;;;;;;;;;;12.90;62.80;;;;;;4986893;28;87848;-38
2022/10/31 09:40:18;;;;;;;;;;;12.80;62.90;;;;;;4984482;28;87412;-38
2022/10/31 09:42:54;;;;;;;;;;;12.90;62.90;;;;;;4983813;28;88206;-39
2022/10/31 09:45:30;;;;;;;;;;;12.90;63.00;;;;;;4983998;28;87058;-39
2022/10/31 09:48:05;;;;;;;;;;;12.90;63.10;;;;;;4983993;28;87368;-39
2022/10/31 09:50:48;;;;;;;;;;;12.90;63.20;;;;;;4983621;28;87955;-39
2022/10/31 09:53:23;;;;;;;;;;;12.90;63.20;;;;;;4984505;28;86355;-39
2022/10/31 09:55:49;;;;;;;;;;;13.00;63.50;;;;;;4984323;28;86949;-39
2022/10/31 09:58:20;;;;;;;;;;;13.00;63.70;;;;;;4986338;28;88196;-39
2022/10/31 10:00:47;;;;;;;;;;;13.00;63.70;;;;;;4981967;28;88547;-38
2022/10/31 10:03:21;;;;;;;;;;;13.00;63.80;;;;;;4983320;28;90236;-39
2022/10/31 10:05:49;;;;;;;;;;;13.00;63.80;;;;;;4983939;28;87138;-38
2022/10/31 10:08:19;;;;;;;;;;;13.00;63.90;;;;;;4984055;28;87521;-39
2022/10/31 10:10:49;;;;;;;;;;;13.00;63.90;;;;;;4983354;28;88102;-39
2022/10/31 10:13:27;;;;;;;;;;;13.10;64.00;;;;;;4983465;28;87047;-38
2022/10/31 10:16:12;;;;;;;;;;;13.10;64.20;;;;;;4983836;28;87553;-39
2022/10/31 10:18:43;;;;;;;;;;;13.00;64.20;;;;;;4983344;28;87283;-39
2022/10/31 10:21:20;;;;;;;;;;;13.10;64.30;;;;;;4986520;28;87177;-39
2022/10/31 10:23:55;;;;;;;;;;;13.10;64.60;;;;;;4983426;28;87812;-39
2022/10/31 10:26:21;;;;;;;;;;;13.10;64.80;;;;;;4982936;28;88556;-38
2022/10/31 10:28:49;;;;;;;;;;;13.10;64.60;;;;;;4983523;28;88326;-39
2022/10/31 10:31:16;;;;;;;;;;;13.10;64.60;;;;;;4982988;28;87272;-38
2022/10/31 10:34:00;;;;;;;;;;;13.20;64.60;;;;;;4983453;28;86978;-38
2022/10/31 10:36:46;;;;;;;;;;;13.20;64.80;;;;;;4983437;28;87409;-39
2022/10/31 10:39:15;;;;;;;;;;;13.20;64.90;;;;;;4980785;28;88090;-38
2022/10/31 10:41:43;;;;;;;;;;;13.20;64.90;;;;;;4982640;28;87126;-38
2022/10/31 10:44:09;;;;;;;;;;;13.20;64.90;;;;;;4985635;28;87352;-39
2022/10/31 10:49:39;;;;;;;;;;;13.30;64.90;;;;;;4983609;28;87194;-38
2022/10/31 10:52:11;;;;;;;;;;;13.30;64.90;;;;;;4982436;28;89037;-39
2022/10/31 10:54:40;;;;;;;;;;;13.30;65.00;;;;;;4983093;28;86963;-39
2022/10/31 10:57:08;;;;;;;;;;;13.30;64.90;;;;;;4983175;28;87476;-39
2022/10/31 10:59:34;;;;;;;;;;;13.30;64.90;;;;;;4982889;28;88222;-39
2022/10/31 11:02:00;;;;;;;;;;;13.40;65.10;;;;;;4983094;28;87166;-39
2022/10/31 11:04:30;;;;;;;;;;;13.40;65.10;;;;;;4983330;28;87565;-39
2022/10/31 11:06:57;;;;;;;;;;;13.40;65.10;;;;;;4985501;28;87165;-39
2022/10/31 11:09:22;;;;;;;;;;;13.40;65.00;;;;;;4983392;28;87313;-39
2022/10/31 11:11:48;;;;;;;;;;;13.40;65.00;;;;;;4981979;28;87379;-38
2022/10/31 11:14:15;;;;;;;;;;;13.40;65.20;;;;;;4983016;28;87933;-39
2022/10/31 11:16:45;;;;;;;;;;;13.50;65.30;;;;;;4982519;28;88072;-38
2022/10/31 11:19:19;;;;;;;;;;;13.50;65.30;;;;;;4982580;28;88094;-39
2022/10/31 11:21:45;;;;;;;;;;;13.50;65.30;;;;;;4982739;28;87127;-39
2022/10/31 11:24:11;;;;;;;;;;;13.50;65.30;;;;;;4982705;28;87713;-39
2022/10/31 11:26:37;;;;;;;;;;;13.50;65.40;;;;;;4982275;28;87272;-39
2022/10/31 11:29:05;;;;;;;;;;;13.60;65.40;;;;;;4985641;28;87082;-38
2022/10/31 11:31:32;;;;;;;;;;;13.60;65.40;;;;;;4982303;28;88060;-39
2022/10/31 11:34:07;;;;;;;;;;;13.60;65.50;;;;;;4983093;28;86538;-38
2022/10/31 11:36:35;;;;;;;;;;;13.60;65.40;;;;;;4982673;28;86897;-38
2022/10/31 11:39:02;;;;;;;;;;;13.60;65.50;;;;;;4982352;28;88514;-39
2022/10/31 11:41:32;;;;;;;;;;;13.60;65.40;;;;;;4981995;28;88011;-39
2022/10/31 11:44:02;;;;;;;;;;;13.70;65.30;;;;;;4982276;28;88339;-39
2022/10/31 11:46:35;;;;;;;;;;;13.70;65.50;;;;;;4982084;28;87915;-39
2022/10/31 11:49:01;;;;;;;;;;;13.70;65.50;;;;;;4980944;28;87092;-39
2022/10/31 11:51:28;;;;;;;;;;;13.70;65.60;;;;;;4985016;28;88112;-39
2022/10/31 11:53:55;;;;;;;;;;;13.70;65.60;;;;;;4983790;28;87106;-38
2022/10/31 11:56:21;;;;;;;;;;;13.70;65.50;;;;;;4985942;28;87392;-39
2022/10/31 11:58:57;;;;;;;;;;;13.80;65.60;;;;;;4985990;28;86512;-39
2022/10/31 12:01:24;;;;;;;;;;;13.70;65.40;;;;;;4985964;28;87024;-39
2022/10/31 12:04:05;;;;;;;;;;;13.80;65.50;;;;;;4985914;28;87488;-39
2022/10/31 12:06:35;;;;;;;;;;;13.80;65.50;;;;;;4984659;28;89235;-39
2022/10/31 12:09:00;;;;;;;;;;;13.80;65.50;;;;;;4985893;28;87230;-39
2022/10/31 12:11:29;;;;;;;;;;;13.80;65.50;;;;;;4987978;28;88032;-39
2022/10/31 12:13:55;;;;;;;;;;;13.80;65.60;;;;;;4985879;28;86907;-38
2022/10/31 12:16:20;;;;;;;;;;;13.80;65.50;;;;;;4985601;28;87400;-39
2022/10/31 12:19:12;;;;;;;;;;;13.80;65.50;;;;;;4985416;28;87986;-39
2022/10/31 12:21:38;;;;;;;;;;;13.80;65.60;;;;;;4985269;28;87061;-39
2022/10/31 12:24:03;;;;;;;;;;;13.90;65.50;;;;;;4986025;28;87255;-39
2022/10/31 12:26:34;;;;;;;;;;;13.90;65.50;;;;;;4984975;28;88342;-39
2022/10/31 12:29:18;;;;;;;;;;;13.90;65.40;;;;;;4985502;28;87044;-39
2022/10/31 12:31:53;;;;;;;;;;;13.90;65.40;;;;;;4984827;28;87875;-39
2022/10/31 12:34:30;;;;;;;;;;;13.90;65.40;;;;;;4987986;28;87924;-38
2022/10/31 12:37:02;;;;;;;;;;;13.90;65.40;;;;;;4985639;28;87472;-39
2022/10/31 12:39:59;;;;;;;;;;;13.90;65.20;;;;;;4984966;28;87387;-38
2022/10/31 12:42:28;;;;;;;;;;;14.00;65.50;;;;;;4983880;28;87193;-39
2022/10/31 12:44:53;;;;;;;;;;;14.00;65.40;;;;;;4985169;28;87569;-38
2022/10/31 12:47:25;;;;;;;;;;;14.00;65.40;;;;;;4984980;28;88119;-39
2022/10/31 12:50:00;;;;;;;;;;;14.00;65.40;;;;;;4985372;28;86368;-38
2022/10/31 12:52:45;;;;;;;;;;;14.00;65.40;;;;;;4985426;28;86860;-38
2022/10/31 12:55:28;;;;;;;;;;;14.00;65.40;;;;;;4984671;28;88204;-39
2022/10/31 12:57:58;;;;;;;;;;;14.10;65.50;;;;;;4985737;28;88624;-39
2022/10/31 13:00:25;;;;;;;;;;;14.10;65.50;;;;;;4983163;28;89661;-39
2022/10/31 13:02:50;;;;;;;;;;;14.10;65.40;;;;;;4984742;28;87541;-39
2022/10/31 13:05:19;;;;;;;;;;;14.10;65.40;;;;;;4983995;28;87682;-39
2022/10/31 13:07:56;;;;;;;;;;;14.10;65.40;;;;;;4984351;28;87165;-36
2022/10/31 13:10:40;;;;;;;;;;;14.10;65.40;;;;;;4984736;28;87103;-39
2022/10/31 13:13:21;;;;;;;;;;;14.10;65.40;;;;;;4984315;28;87437;-39
2022/10/31 13:15:56;;;;;;;;;;;14.10;65.30;;;;;;4984735;28;87841;-39
2022/10/31 13:18:26;;;;;;;;;;;14.20;65.40;;;;;;4984921;28;87874;-39
2022/10/31 13:20:52;;;;;;;;;;;14.20;65.30;;;;;;4987173;28;87609;-39
2022/10/31 13:23:30;;;;;;;;;;;14.20;65.40;;;;;;4983714;28;88088;-39
2022/10/31 13:25:56;;;;;;;;;;;14.20;65.40;;;;;;4984309;28;87974;-39
2022/10/31 13:28:33;;;;;;;;;;;14.20;65.40;;;;;;4984110;28;87984;-39
2022/10/31 13:30:59;;;;;;;;;;;14.20;65.30;;;;;;4984546;28;87121;-39
2022/10/31 13:33:28;;;;;;;;;;;14.20;65.40;;;;;;4984388;28;87465;-38
2022/10/31 13:35:56;;;;;;;;;;;14.30;65.30;;;;;;4983666;28;87156;-39
2022/10/31 13:38:42;;;;;;;;;;;14.30;65.40;;;;;;4982761;28;87150;-39
2022/10/31 13:41:13;;;;;;;;;;;14.30;65.40;;;;;;4982903;28;86471;-39
2022/10/31 13:43:41;;;;;;;;;;;14.30;65.40;;;;;;4986580;28;88074;-39
2022/10/31 13:46:25;;;;;;;;;;;14.30;65.30;;;;;;4983938;28;87477;-38
2022/10/31 13:48:51;;;;;;;;;;;14.40;65.50;;;;;;4983212;28;88965;-39
2022/10/31 13:51:24;;;;;;;;;;;14.40;65.40;;;;;;4984077;28;87149;-39
2022/10/31 13:53:50;;;;;;;;;;;14.40;65.30;;;;;;4984215;28;87237;-39
2022/10/31 13:56:20;;;;;;;;;;;14.40;65.50;;;;;;4983642;28;88268;-39
2022/10/31 13:58:58;;;;;;;;;;;14.40;65.40;;;;;;4983861;28;87027;-39
2022/10/31 14:01:24;;;;;;;;;;;14.40;65.50;;;;;;4983988;28;87391;-39
2022/10/31 14:03:58;;;;;;;;;;;14.50;65.40;;;;;;4983668;28;86985;-39
2022/10/31 14:06:34;;;;;;;;;;;14.50;65.40;;;;;;4987196;28;86264;-39
2022/10/31 14:09:00;;;;;;;;;;;14.50;65.40;;;;;;4983371;28;87970;-39
2022/10/31 14:11:27;;;;;;;;;;;14.50;65.50;;;;;;4983334;28;87153;-39
2022/10/31 14:13:53;;;;;;;;;;;14.60;65.50;;;;;;4983190;28;87872;-39
2022/10/31 14:16:39;;;;;;;;;;;14.50;65.30;;;;;;4983245;28;88059;-39
2022/10/31 14:19:07;;;;;;;;;;;14.60;65.30;;;;;;4983457;28;87190;-39
2022/10/31 14:21:38;;;;;;;;;;;14.60;65.40;;;;;;4983927;28;86841;-38
2022/10/31 14:24:14;;;;;;;;;;;14.60;65.40;;;;;;4983219;28;87996;-44
2022/10/31 14:26:50;;;;;;;;;;;14.60;65.40;;;;;;4986482;28;87049;-39